Time;durP1;ratioP1;P1;durP2;ratioP2;P2;SDS_P1;SDS_P2;PMS_P1;PMS_P2;Temp;Humidity;BMP_temperature;BMP_pressure;BME280_temperature;BME280_humidity;BME280_pressure;Samples;Min_cycle;Max_cycle;Signal;HPM_P1;HPM_P2
2022/06/14 00:01:00;;;;;;;;;;;;;;;-142.75;100.00;77920.91;5009513;28;20032;-71
2022/06/14 00:03:06;;;;;;;;;;;;;;;-142.75;100.00;77934.69;5008747;28;20418;-69
2022/06/14 00:05:31;;;;;;;;;;;;;;;-142.75;100.00;77936.66;5009578;28;19956;-70
2022/06/14 00:07:56;;;;;;;;;;;;;;;-142.75;100.00;77948.47;5009243;28;20327;-70
2022/06/14 00:10:22;;;;;;;;;;;;;;;-142.75;100.00;77948.47;5009279;28;19917;-70
2022/06/14 00:12:47;;;;;;;;;;;;;;;-142.75;100.00;77962.25;5009461;28;19917;-71
2022/06/14 00:15:12;;;;;;;;;;;;;;;-142.75;100.00;77960.28;5010367;28;19929;-71
2022/06/14 00:17:38;;;;;;;;;;;;;;;-142.75;100.00;77964.22;5009517;28;19917;-70
2022/06/14 00:20:03;;;;;;;;;;;;;;;-142.75;100.00;77962.25;4991620;28;19918;-70
2022/06/14 00:22:28;;;;;;;;;;;;;;;-142.75;100.00;77960.28;5009191;28;20012;-71
2022/06/14 00:24:54;;;;;;;;;;;;;;;-142.75;100.00;77966.19;4991861;28;20019;-71
2022/06/14 00:27:20;;;;;;;;;;;;;;;-142.75;100.00;77964.22;4991041;28;19996;-71
2022/06/14 00:29:45;;;;;;;;;;;;;;;-142.75;100.00;77966.19;5007846;28;20013;-69
2022/06/14 00:32:10;;;;;;;;;;;;;;;-142.75;100.00;77970.13;5009147;28;19940;-70
2022/06/14 00:34:36;;;;;;;;;;;;;;;-142.75;100.00;77968.16;5009267;28;19924;-70
2022/06/14 00:37:02;;;;;;;;;;;;;;;-142.75;100.00;77968.16;4991574;28;19921;-71
2022/06/14 00:39:27;;;;;;;;;;;;;;;-142.75;100.00;77960.28;5008941;28;19925;-70
2022/06/14 00:41:54;;;;;;;;;;;;;;;-142.75;100.00;77956.34;5009136;28;19982;-71
2022/06/14 00:44:24;;;;;;;;;;;;;;;-142.75;100.00;77958.31;5008023;28;19960;-71
2022/06/14 00:47:28;;;;;;;;;;;;;;;-142.75;100.00;77956.34;4992568;28;19925;-70
2022/06/14 00:49:59;;;;;;;;;;;;;;;-142.75;100.00;77964.22;4932175;29;19918;-71
2022/06/14 00:52:27;;;;;;;;;;;;;;;-142.75;100.00;77960.28;4948220;29;19934;-71
2022/06/14 00:54:55;;;;;;;;;;;;;;;-142.75;100.00;77956.34;4969364;28;19926;-70
2022/06/14 00:57:23;;;;;;;;;;;;;;;-142.75;100.00;77948.47;5008244;28;20465;-71
2022/06/14 00:59:51;;;;;;;;;;;;;;;-142.75;100.00;77934.69;4991031;28;19917;-72
2022/06/14 01:02:18;;;;;;;;;;;;;;;-142.75;100.00;77932.72;4992109;28;20294;-70
2022/06/14 01:04:44;;;;;;;;;;;;;;;-142.75;100.00;77932.72;5012708;28;19917;-71
2022/06/14 01:07:21;;;;;;;;;;;;;;;-142.75;100.00;77926.81;5012806;28;19940;-71
2022/06/14 01:09:49;;;;;;;;;;;;;;;-142.75;100.00;77936.66;4994635;28;19925;-70
2022/06/14 01:12:26;;;;;;;;;;;;;;;-142.75;100.00;77940.59;4994781;28;19988;-71
2022/06/14 01:15:05;;;;;;;;;;;;;;;-142.75;100.00;77940.59;4995410;28;19968;-71
2022/06/14 01:17:42;;;;;;;;;;;;;;;-142.75;100.00;77930.75;5012520;28;19925;-70
2022/06/14 01:20:09;;;;;;;;;;;;;;;-142.75;100.00;77928.78;5012286;28;19921;-71
2022/06/14 01:22:35;;;;;;;;;;;;;;;-142.75;100.00;77934.69;5012250;28;19925;-70
2022/06/14 01:25:02;;;;;;;;;;;;;;;-142.75;100.00;77924.84;5012268;28;19918;-70
2022/06/14 01:27:28;;;;;;;;;;;;;;;-142.75;100.00;77920.91;5012200;28;19987;-71
2022/06/14 01:30:20;;;;;;;;;;;;;;;-142.75;100.00;77915.00;5011910;28;20298;-71
2022/06/14 01:32:50;;;;;;;;;;;;;;;-142.75;100.00;77920.91;5008964;28;20402;-71
2022/06/14 01:35:18;;;;;;;;;;;;;;;-142.75;100.00;77920.91;5012158;28;19917;-70
2022/06/14 01:37:45;;;;;;;;;;;;;;;-142.75;100.00;77924.84;5011894;28;19925;-70
2022/06/14 01:40:10;;;;;;;;;;;;;;;-142.75;100.00;77905.13;5011802;28;19940;-71
2022/06/14 01:42:38;;;;;;;;;;;;;;;-142.75;100.00;77913.03;5012247;28;19987;-70
2022/06/14 01:45:04;;;;;;;;;;;;;;;-142.75;100.00;77913.03;5012673;28;19991;-71
2022/06/14 01:47:48;;;;;;;;;;;;;;;-142.75;100.00;77907.09;5012179;28;20407;-71
2022/06/14 01:53:19;;;;;;;;;;;;;;;-142.75;100.00;77897.25;5012127;28;19980;-71
2022/06/14 01:55:47;;;;;;;;;;;;;;;-142.75;100.00;77887.41;5011557;28;19961;-69
2022/06/14 01:58:15;;;;;;;;;;;;;;;-142.75;100.00;77897.25;5011430;28;20379;-71
2022/06/14 02:00:53;;;;;;;;;;;;;;;-142.75;100.00;77897.25;5011386;28;19964;-70
2022/06/14 02:06:23;;;;;;;;;;;;;;;-142.75;100.00;77905.13;5011582;28;19959;-71
2022/06/14 02:08:52;;;;;;;;;;;;;;;-142.75;100.00;77920.91;5011295;28;19949;-71
2022/06/14 02:11:27;;;;;;;;;;;;;;;-142.75;100.00;77913.03;5010982;28;20375;-69
2022/06/14 02:13:53;;;;;;;;;;;;;;;-142.75;100.00;77916.97;5011220;28;19921;-71
2022/06/14 02:16:23;;;;;;;;;;;;;;;-142.75;100.00;77932.72;5012328;28;19917;-70
2022/06/14 02:19:08;;;;;;;;;;;;;;;-142.75;100.00;77932.72;5009626;28;19963;-70
2022/06/14 02:21:51;;;;;;;;;;;;;;;-142.75;100.00;77938.63;5009871;28;20379;-71
2022/06/14 02:24:23;;;;;;;;;;;;;;;-142.75;100.00;77940.59;4974089;28;19972;-69
2022/06/14 02:26:53;;;;;;;;;;;;;;;-142.75;100.00;77952.41;5010961;28;19934;-70
2022/06/14 02:29:24;;;;;;;;;;;;;;;-142.75;100.00;77964.22;5010940;28;19974;-70
2022/06/14 02:31:58;;;;;;;;;;;;;;;-142.75;100.00;77964.22;4993483;28;19922;-71
2022/06/14 02:34:28;;;;;;;;;;;;;;;-142.75;100.00;77974.06;5011100;28;19917;-70
2022/06/14 02:36:58;;;;;;;;;;;;;;;-142.75;100.00;77976.03;4993512;28;19917;-71
2022/06/14 02:39:26;;;;;;;;;;;;;;;-142.75;100.00;77972.09;4993306;28;19921;-70
2022/06/14 02:42:07;;;;;;;;;;;;;;;-142.75;100.00;77968.16;4993328;28;19955;-71
2022/06/14 02:44:38;;;;;;;;;;;;;;;-142.75;100.00;77972.09;5007341;28;19918;-71
2022/06/14 02:47:25;;;;;;;;;;;;;;;-142.75;100.00;77968.16;5011659;28;19960;-71
2022/06/14 02:50:03;;;;;;;;;;;;;;;-142.75;100.00;77974.06;5010332;28;19991;-71
2022/06/14 02:52:38;;;;;;;;;;;;;;;-142.75;100.00;77979.97;5036284;23;19963;-65
2022/06/14 02:55:07;;;;;;;;;;;;;;;-142.75;100.00;77983.91;5047507;28;19939;-66
2022/06/14 02:57:35;;;;;;;;;;;;;;;-142.75;100.00;77976.03;5050294;28;19917;-66
2022/06/14 03:00:10;;;;;;;;;;;;;;;-142.75;100.00;77972.09;5050098;28;20366;-66
2022/06/14 03:02:55;;;;;;;;;;;;;;;-142.75;100.00;77968.16;5050241;28;19931;-66
2022/06/14 03:05:24;;;;;;;;;;;;;;;-142.75;100.00;77966.19;5050279;28;19917;-66
2022/06/14 03:07:53;;;;;;;;;;;;;;;-142.75;100.00;77968.16;5049812;28;19916;-66
2022/06/14 03:10:18;;;;;;;;;;;;;;;-142.75;100.00;77972.09;5050162;28;19923;-67
2022/06/14 03:12:43;;;;;;;;;;;;;;;-142.75;100.00;77972.09;5049910;28;20325;-67
2022/06/14 03:15:16;;;;;;;;;;;;;;;-142.75;100.00;77968.16;5032962;28;19971;-67
2022/06/14 03:17:45;;;;;;;;;;;;;;;-142.75;100.00;77972.09;5030465;28;19923;-66
2022/06/14 03:20:18;;;;;;;;;;;;;;;-142.75;100.00;77979.97;5029931;28;19917;-67
2022/06/14 03:23:04;;;;;;;;;;;;;;;-142.75;100.00;77979.97;5029885;28;19917;-66
2022/06/14 03:25:35;;;;;;;;;;;;;;;-142.75;100.00;77972.09;5029181;28;19971;-67
2022/06/14 03:28:10;;;;;;;;;;;;;;;-142.75;100.00;77970.13;5029675;28;19925;-67
2022/06/14 03:30:47;;;;;;;;;;;;;;;-142.75;100.00;77978.00;5029608;28;20008;-67
2022/06/14 03:33:17;;;;;;;;;;;;;;;-142.75;100.00;77978.00;5029952;28;20458;-66
2022/06/14 03:35:44;;;;;;;;;;;;;;;-142.75;100.00;77989.81;5029825;28;20276;-67
2022/06/14 03:38:16;;;;;;;;;;;;;;;-142.75;100.00;77991.78;5029588;28;20344;-66
2022/06/14 03:40:42;;;;;;;;;;;;;;;-142.75;100.00;78003.59;5029688;28;19917;-64
2022/06/14 03:43:07;;;;;;;;;;;;;;;-142.75;100.00;78007.53;5029415;28;19980;-67
2022/06/14 03:45:41;;;;;;;;;;;;;;;-142.75;100.00;78019.34;5030587;28;19960;-66
2022/06/14 03:48:08;;;;;;;;;;;;;;;-142.75;100.00;78015.41;5029263;28;19917;-66
2022/06/14 03:50:38;;;;;;;;;;;;;;;-142.75;100.00;78013.44;5029772;28;19924;-67
2022/06/14 03:53:10;;;;;;;;;;;;;;;-142.75;100.00;78015.41;5029557;28;20354;-66
2022/06/14 03:55:38;;;;;;;;;;;;;;;-142.75;100.00;78005.56;5029626;28;19917;-66
2022/06/14 03:58:24;;;;;;;;;;;;;;;-142.75;100.00;78005.56;5029303;28;19921;-66
2022/06/14 04:00:51;;;;;;;;;;;;;;;-142.75;100.00;78001.63;5022047;28;20005;-66
2022/06/14 04:03:19;;;;;;;;;;;;;;;-142.75;100.00;78001.63;5029296;28;19939;-66
2022/06/14 04:05:44;;;;;;;;;;;;;;;-142.75;100.00;77991.78;5029381;28;19927;-66
2022/06/14 04:08:27;;;;;;;;;;;;;;;-142.75;100.00;77983.91;5029069;28;20491;-67
2022/06/14 04:11:02;;;;;;;;;;;;;;;-142.75;100.00;77979.97;5029360;28;19975;-66
2022/06/14 04:13:36;;;;;;;;;;;;;;;-142.75;100.00;77968.16;5029685;28;20298;-66
2022/06/14 04:16:08;;;;;;;;;;;;;;;-142.75;100.00;77966.19;5030426;28;20007;-66
2022/06/14 04:18:50;;;;;;;;;;;;;;;-142.75;100.00;77968.16;5029059;28;19964;-66
2022/06/14 04:21:26;;;;;;;;;;;;;;;-142.75;100.00;77962.25;5029317;28;19917;-66
2022/06/14 04:24:00;;;;;;;;;;;;;;;-142.75;100.00;77952.41;5029388;28;19924;-65
2022/06/14 04:26:25;;;;;;;;;;;;;;;-142.75;100.00;77944.53;5029314;28;19917;-66
2022/06/14 04:28:59;;;;;;;;;;;;;;;-142.75;100.00;77932.72;5029013;28;19983;-66
2022/06/14 04:31:29;;;;;;;;;;;;;;;-142.75;100.00;77928.78;5029156;28;19956;-66
2022/06/14 04:34:14;;;;;;;;;;;;;;;-142.75;100.00;77918.94;5029262;28;19925;-67
2022/06/14 04:36:47;;;;;;;;;;;;;;;-142.75;100.00;77915.00;5029276;28;19917;-66
2022/06/14 04:39:16;;;;;;;;;;;;;;;-142.75;100.00;77901.19;5032900;28;20425;-67
2022/06/14 04:41:45;;;;;;;;;;;;;;;-142.75;100.00;77895.28;5032656;28;19917;-66
2022/06/14 04:44:19;;;;;;;;;;;;;;;-142.75;100.00;77871.66;5033343;28;19924;-66
2022/06/14 04:46:53;;;;;;;;;;;;;;;-142.75;100.00;77863.78;5034045;28;20004;-67
2022/06/14 04:49:34;;;;;;;;;;;;;;;-142.75;100.00;77861.81;5032810;28;19917;-66
2022/06/14 04:52:05;;;;;;;;;;;;;;;-142.75;100.00;77846.06;5032592;28;19925;-67
2022/06/14 04:54:41;;;;;;;;;;;;;;;-142.75;100.00;77834.25;5032906;28;19917;-66
2022/06/14 04:57:09;;;;;;;;;;;;;;;-142.75;100.00;77830.31;5032912;28;19932;-67
2022/06/14 04:59:39;;;;;;;;;;;;;;;-142.75;100.00;77826.38;5032516;28;20466;-67
2022/06/14 05:02:09;;;;;;;;;;;;;;;-142.75;100.00;77812.59;5032720;28;20003;-67
2022/06/14 05:04:42;;;;;;;;;;;;;;;-142.75;100.00;77800.78;5032714;28;19925;-66
2022/06/14 05:07:12;;;;;;;;;;;;;;;-142.75;100.00;77787.00;5032758;28;19921;-66
2022/06/14 05:09:41;;;;;;;;;;;;;;;-142.75;100.00;77777.16;5032498;28;19924;-66
2022/06/14 05:12:07;;;;;;;;;;;;;;;-142.75;100.00;77763.38;5032153;28;19929;-67
2022/06/14 05:14:38;;;;;;;;;;;;;;;-142.75;100.00;77755.50;5032514;28;20556;-66
2022/06/14 05:17:24;;;;;;;;;;;;;;;-142.75;100.00;77751.56;5031842;28;19917;-66
2022/06/14 05:19:54;;;;;;;;;;;;;;;-142.75;100.00;77753.53;5031713;28;20318;-66
2022/06/14 05:22:30;;;;;;;;;;;;;;;-142.75;100.00;77737.78;5032433;28;19917;-66
2022/06/14 05:24:55;;;;;;;;;;;;;;;-142.75;100.00;77727.94;5032300;28;19923;-65
2022/06/14 05:27:24;;;;;;;;;;;;;;;-142.75;100.00;77710.19;5032374;28;19916;-66
2022/06/14 05:29:52;;;;;;;;;;;;;;;-142.75;100.00;77700.34;5031955;28;19925;-67
2022/06/14 05:32:28;;;;;;;;;;;;;;;-142.75;100.00;77692.47;5031685;28;19933;-66
2022/06/14 05:35:05;;;;;;;;;;;;;;;-142.75;100.00;77676.72;5034012;28;19917;-66
2022/06/14 05:37:30;;;;;;;;;;;;;;;-142.75;100.00;77659.00;5051197;28;20434;-66
2022/06/14 05:39:58;;;;;;;;;;;;;;;-142.75;100.00;77641.28;5041481;28;19917;-66
2022/06/14 05:42:29;;;;;;;;;;;;;;;-142.75;100.00;77633.41;5048436;28;20496;-66
2022/06/14 05:44:58;;;;;;;;;;;;;;;-142.75;100.00;77609.78;5051223;28;19920;-65
2022/06/14 05:47:29;;;;;;;;;;;;;;;-142.75;100.00;77594.03;5052205;28;19923;-66
2022/06/14 05:49:59;;;;;;;;;;;;;;;-142.75;100.00;77576.31;5050260;28;19925;-66
2022/06/14 05:52:28;;;;;;;;;;;;;;;-142.75;100.00;77554.66;5050321;28;19925;-66
2022/06/14 05:55:09;;;;;;;;;;;;;;;-142.75;100.00;77534.97;5050661;28;19923;-65
2022/06/14 05:57:37;;;;;;;;;;;;;;;-142.75;100.00;77521.19;5050292;28;20445;-66
2022/06/14 06:00:03;;;;;;;;;;;;;;;-142.75;100.00;77503.47;5050328;28;19952;-66
2022/06/14 06:02:28;;;;;;;;;;;;;;;-142.75;100.00;77489.69;5050993;28;20315;-66
2022/06/14 06:05:11;;;;;;;;;;;;;;;-142.75;100.00;77475.91;5050468;28;19920;-67
2022/06/14 06:07:38;;;;;;;;;;;;;;;-142.75;100.00;77483.78;5050322;28;19916;-65
2022/06/14 06:10:10;;;;;;;;;;;;;;;-142.75;100.00;77460.13;5050152;28;20374;-65
2022/06/14 06:12:38;;;;;;;;;;;;;;;-142.75;100.00;77440.44;5050514;28;20382;-66
2022/06/14 06:15:13;;;;;;;;;;;;;;;-142.75;100.00;77432.56;5050426;28;20407;-66
2022/06/14 06:17:45;;;;;;;;;;;;;;;-142.75;100.00;77424.69;5051437;28;19917;-65
2022/06/14 06:20:13;;;;;;;;;;;;;;;-142.75;100.00;77414.84;5050933;28;19924;-65
2022/06/14 06:22:48;;;;;;;;;;;;;;;-142.75;100.00;77397.13;5050325;28;19917;-66
2022/06/14 06:25:15;;;;;;;;;;;;;;;-142.75;100.00;77389.25;5050198;28;19924;-66
2022/06/14 06:27:56;;;;;;;;;;;;;;;-142.75;100.00;77377.44;5049840;28;19920;-65
2022/06/14 06:30:44;;;;;;;;;;;;;;;-142.75;100.00;77369.56;5049796;28;20019;-65
2022/06/14 06:33:12;;;;;;;;;;;;;;;-142.75;100.00;77353.81;5044183;28;19917;-65
2022/06/14 06:35:45;;;;;;;;;;;;;;;-142.75;100.00;77338.06;5049814;28;20286;-65
2022/06/14 06:38:22;;;;;;;;;;;;;;;-142.75;100.00;77316.41;5049630;28;20329;-65
2022/06/14 06:41:49;;;;;;;;;;;;;;;-142.75;100.00;77322.31;5049811;28;19916;-66
2022/06/14 06:43:37;;;;;;;;;;;;;;;-142.75;100.00;77296.72;5049722;28;19924;-66
2022/06/14 06:46:07;;;;;;;;;;;;;;;-142.75;100.00;77282.94;5050922;28;20333;-66
2022/06/14 06:48:38;;;;;;;;;;;;;;;-142.75;100.00;77265.22;5049656;28;19924;-65
2022/06/14 06:51:06;;;;;;;;;;;;;;;-142.75;100.00;77247.50;5049461;28;20393;-67
2022/06/14 06:53:40;;;;;;;;;;;;;;;-142.75;100.00;77239.63;5049266;28;20328;-67
2022/06/14 06:56:08;;;;;;;;;;;;;;;-142.75;100.00;77223.88;5048349;28;20040;-66
2022/06/14 06:58:39;;;;;;;;;;;;;;;-142.75;100.00;77217.97;5049399;28;19954;-67
2022/06/14 07:01:11;;;;;;;;;;;;;;;-142.75;100.00;77186.47;5048498;28;19968;-66
2022/06/14 07:03:39;;;;;;;;;;;;;;;-142.75;100.00;77184.50;5049948;28;19955;-67
2022/06/14 07:06:06;;;;;;;;;;;;;;;-142.75;100.00;77170.72;5050248;28;19921;-66
2022/06/14 07:08:35;;;;;;;;;;;;;;;-142.75;100.00;77172.69;5049866;28;19917;-67
2022/06/14 07:11:01;;;;;;;;;;;;;;;-142.75;100.00;77182.53;5050080;28;19921;-66
2022/06/14 07:13:29;;;;;;;;;;;;;;;-142.75;100.00;77168.75;5031425;28;19916;-66
2022/06/14 07:15:59;;;;;;;;;;;;;;;-142.75;100.00;77145.13;5031023;28;19983;-67
2022/06/14 07:18:39;;;;;;;;;;;;;;;-142.75;100.00;77121.50;5030349;28;20397;-66
2022/06/14 07:21:08;;;;;;;;;;;;;;;-142.75;100.00;77097.88;5030311;28;19921;-66
2022/06/14 07:23:42;;;;;;;;;;;;;;;-142.75;100.00;77076.22;5030213;28;19956;-67
2022/06/14 07:26:19;;;;;;;;;;;;;;;-142.75;100.00;77058.50;5030033;28;20372;-66
2022/06/14 07:28:59;;;;;;;;;;;;;;;-142.75;100.00;77058.50;5029834;28;19975;-67
2022/06/14 07:31:28;;;;;;;;;;;;;;;-142.75;100.00;77038.81;5029677;28;19921;-67
2022/06/14 07:33:54;;;;;;;;;;;;;;;-142.75;100.00;77015.19;5030064;28;19921;-67
2022/06/14 07:36:35;;;;;;;;;;;;;;;-142.75;100.00;77048.66;5029833;28;19917;-67
2022/06/14 07:39:06;;;;;;;;;;;;;;;-142.75;100.00;77028.97;5029988;28;20361;-66
2022/06/14 07:41:34;;;;;;;;;;;;;;;-142.75;100.00;77032.91;5029836;28;19917;-66
2022/06/14 07:44:15;;;;;;;;;;;;;;;-142.75;100.00;77034.88;5029735;28;19917;-66
2022/06/14 07:46:47;;;;;;;;;;;;;;;-142.75;100.00;77034.88;5030762;28;19917;-66
2022/06/14 07:49:39;;;;;;;;;;;;;;;-142.75;100.00;77001.41;5029436;28;19957;-69
2022/06/14 07:52:06;;;;;;;;;;;;;;;-142.75;100.00;76983.69;5024588;28;19941;-67
2022/06/14 07:54:38;;;;;;;;;;;;;;;-142.75;100.00;76997.47;5049451;28;20019;-66
2022/06/14 07:57:09;;;;;;;;;;;;;;;-142.75;100.00;76973.84;5049387;28;20501;-66
2022/06/14 07:59:39;;;;;;;;;;;;;;;-142.75;100.00;76964.00;5049072;28;19929;-67
2022/06/14 08:02:13;;;;;;;;;;;;;;;-142.75;100.00;76950.22;5049584;28;19924;-66
2022/06/14 08:04:42;;;;;;;;;;;;;;;-142.75;100.00;76922.66;5049367;28;20443;-66
2022/06/14 08:07:13;;;;;;;;;;;;;;;-142.75;100.00;76916.75;5049377;28;19982;-66
2022/06/14 08:09:51;;;;;;;;;;;;;;;-142.75;100.00;76904.94;5049106;28;20439;-66
2022/06/14 08:12:22;;;;;;;;;;;;;;;-142.75;100.00;76902.97;5048742;28;20016;-66
2022/06/14 08:14:50;;;;;;;;;;;;;;;-142.75;100.00;76899.03;5049396;28;20413;-66
2022/06/14 08:17:20;;;;;;;;;;;;;;;-142.75;100.00;76897.06;5045647;28;19963;-66
2022/06/14 08:20:08;;;;;;;;;;;;;;;-142.75;97.16;76889.19;5029165;28;19917;-66
2022/06/14 08:22:39;;;;;;;;;;;;;;;-142.75;99.89;76883.28;5026886;28;19917;-67
2022/06/14 08:25:12;;;;;;;;;;;;;;;-142.75;100.00;76877.38;5034954;28;19925;-67
2022/06/14 08:27:42;;;;;;;;;;;;;;;-142.75;96.81;76865.56;5049235;28;19967;-67
2022/06/14 08:30:17;;;;;;;;;;;;;;;-142.75;100.00;76875.41;5030953;28;19921;-67
2022/06/14 08:32:45;;;;;;;;;;;;;;;-142.75;100.00;76849.81;5029871;28;20291;-67
2022/06/14 08:35:29;;;;;;;;;;;;;;;-142.75;99.75;76808.50;5030378;28;20405;-67
2022/06/14 08:37:54;;;;;;;;;;;;;;;-142.75;100.00;76786.84;5030337;28;19928;-67
2022/06/14 08:40:23;;;;;;;;;;;;;;;-142.75;99.59;76780.94;5029081;28;19925;-67
2022/06/14 08:42:51;;;;;;;;;;;;;;;-142.75;100.00;76784.88;5030424;28;19917;-67
2022/06/14 08:45:27;;;;;;;;;;;;;;;-142.75;100.00;76757.31;5030080;28;19917;-67
2022/06/14 08:47:52;;;;;;;;;;;;;;;-142.75;100.00;76757.31;5030558;28;20393;-67
2022/06/14 08:50:24;;;;;;;;;;;;;;;-142.75;100.00;76735.66;5030380;28;19928;-66
2022/06/14 08:52:49;;;;;;;;;;;;;;;-142.75;100.00;76704.16;5036566;23;19932;-70
2022/06/14 08:55:20;;;;;;;;;;;;;;;-142.75;100.00;76692.34;5010665;28;19921;-69
2022/06/14 08:57:54;;;;;;;;;;;;;;;-142.75;100.00;76684.47;5013795;28;19921;-70
2022/06/14 09:00:30;;;;;;;;;;;;;;;-142.75;96.47;76668.72;5029909;28;19923;-70
2022/06/14 09:03:04;;;;;;;;;;;;;;;-142.75;94.47;76684.47;5019420;28;19983;-71
2022/06/14 09:05:29;;;;;;;;;;;;;;;-142.75;99.13;76664.78;5010306;28;19997;-68
2022/06/14 09:08:07;;;;;;;;;;;;;;;-142.75;97.45;76662.81;4992350;28;20007;-70
2022/06/14 09:10:50;;;;;;;;;;;;;;;-142.75;86.30;76637.22;5010133;28;20008;-70
2022/06/14 09:13:27;;;;;;;;;;;;;;;-142.75;97.13;76627.38;5010255;28;20387;-71
2022/06/14 09:16:11;;;;;;;;;;;;;;;-142.75;88.62;76621.47;4992648;28;19917;-70
2022/06/14 09:18:55;;;;;;;;;;;;;;;-142.75;88.42;76609.66;5010292;28;19917;-71
2022/06/14 09:21:39;;;;;;;;;;;;;;;-142.75;90.92;76623.44;5010128;28;19921;-71
2022/06/14 09:24:11;;;;;;;;;;;;;;;-142.75;95.52;76558.47;5011654;28;20386;-70
2022/06/14 09:26:42;;;;;;;;;;;;;;;-142.75;99.12;76546.66;5015535;28;20008;-71
2022/06/14 09:29:26;;;;;;;;;;;;;;;-142.75;88.78;76528.97;5017394;28;19920;-72
2022/06/14 09:32:07;;;;;;;;;;;;;;;-142.75;87.65;76507.31;4995899;28;19925;-72
2022/06/14 09:34:39;;;;;;;;;;;;;;;-142.75;92.31;76483.69;5013300;28;20419;-73
2022/06/14 09:37:23;;;;;;;;;;;;;;;-142.75;82.52;76542.72;5013628;28;19957;-71
2022/06/14 09:40:05;;;;;;;;;;;;;;;-142.75;89.81;76554.53;5013046;28;19930;-72
2022/06/14 09:42:48;;;;;;;;;;;;;;;-142.75;88.63;76530.91;5017584;28;20350;-71
2022/06/14 09:45:31;;;;;;;;;;;;;;;-142.75;82.29;76554.53;5032891;28;19921;-71
2022/06/14 09:47:59;;;;;;;;;;;;;;;-142.75;88.50;76530.91;5009744;28;19917;-71
2022/06/14 09:50:40;;;;;;;;;;;;;;;-142.75;84.20;76588.00;5013252;28;19937;-72
2022/06/14 09:53:05;;;;;;;;;;;;;;;-142.75;87.91;76621.47;5013013;28;19921;-72
2022/06/14 09:55:41;;;;;;;;;;;;;;;-142.75;84.47;76651.00;4995006;28;20407;-71
2022/06/14 09:58:25;;;;;;;;;;;;;;;-142.75;85.89;76710.06;4995348;28;19927;-72
2022/06/14 10:01:00;;;;;;;;;;;;;;;-142.75;88.06;76725.81;5012808;28;19925;-71
2022/06/14 10:03:44;;;;;;;;;;;;;;;-142.75;94.45;76727.78;5012913;28;20000;-71
2022/06/14 10:06:09;;;;;;;;;;;;;;;-142.75;87.45;76733.69;4995238;28;19978;-71
2022/06/14 10:08:37;;;;;;;;;;;;;;;-142.75;86.50;76759.28;5012426;28;19917;-72
2022/06/14 10:11:16;;;;;;;;;;;;;;;-142.75;98.79;76788.81;4995138;28;19925;-70
2022/06/14 10:13:47;;;;;;;;;;;;;;;-142.75;100.00;76802.56;5012769;28;19921;-70
2022/06/14 10:16:29;;;;;;;;;;;;;;;-142.75;95.14;76828.16;5012816;28;19917;-70
2022/06/14 10:19:12;;;;;;;;;;;;;;;-142.75;99.33;76822.25;5012411;28;19917;-71
2022/06/14 10:22:07;;;;;;;;;;;;;;;-142.75;91.84;76865.56;5012581;28;19918;-70
2022/06/14 10:24:38;;;;;;;;;;;;;;;-142.75;97.87;76857.69;4958717;28;19942;-71
2022/06/14 10:30:10;;;;;;;;;;;;;;;-142.75;98.42;76843.91;5012391;28;19964;-70
2022/06/14 10:32:35;;;;;;;;;;;;;;;-142.75;100.00;76836.03;5012388;28;19964;-70
2022/06/14 10:35:19;;;;;;;;;;;;;;;-142.75;100.00;76826.19;5012379;28;19952;-70
2022/06/14 10:38:04;;;;;;;;;;;;;;;-142.75;100.00;76828.16;4996922;28;19953;-69
2022/06/14 10:40:39;;;;;;;;;;;;;;;-142.75;100.00;76838.00;5032052;28;19925;-70
2022/06/14 10:43:10;;;;;;;;;;;;;;;-142.75;100.00;76826.19;5031924;28;19924;-70
2022/06/14 10:45:54;;;;;;;;;;;;;;;-142.75;99.51;76838.00;5016341;28;19972;-70
2022/06/14 10:48:36;;;;;;;;;;;;;;;-142.75;100.00;76834.06;5012296;28;19917;-70
2022/06/14 10:51:20;;;;;;;;;;;;;;;-142.75;100.00;76832.09;5012143;28;19926;-71
2022/06/14 10:53:45;;;;;;;;;;;;;;;-142.75;97.28;76849.81;5011696;28;19921;-70
2022/06/14 10:56:26;;;;;;;;;;;;;;;-142.75;97.41;76853.75;5012189;28;19921;-71
2022/06/14 10:59:00;;;;;;;;;;;;;;;-142.75;100.00;76861.63;5011562;28;20350;-71
2022/06/14 11:01:44;;;;;;;;;;;;;;;-142.75;100.00;76830.13;4994317;28;19925;-70
2022/06/14 11:04:41;;;;;;;;;;;;;;;-142.75;100.00;76822.25;4994177;28;20007;-70
2022/06/14 11:07:25;;;;;;;;;;;;;;;-142.75;100.00;76838.00;4982136;28;19924;-70
2022/06/14 11:10:09;;;;;;;;;;;;;;;-142.75;100.00;76822.25;5031140;28;19923;-69
2022/06/14 11:12:34;;;;;;;;;;;;;;;-142.75;97.16;76818.31;5013353;28;19929;-69
2022/06/14 11:15:02;;;;;;;;;;;;;;;-142.75;89.83;76814.38;5031381;28;19933;-70
2022/06/14 11:17:27;;;;;;;;;;;;;;;-142.75;100.00;76786.84;5031931;28;19924;-70
2022/06/14 11:19:52;;;;;;;;;;;;;;;-142.75;88.21;76765.19;5030942;28;19917;-70
2022/06/14 11:22:19;;;;;;;;;;;;;;;-142.75;95.38;76674.63;5031130;28;19980;-69
2022/06/14 11:24:50;;;;;;;;;;;;;;;-142.75;88.33;76625.41;5031382;28;19929;-70
2022/06/14 11:27:22;;;;;;;;;;;;;;;-142.75;85.76;76611.63;5031158;28;19917;-70
2022/06/14 11:30:00;;;;;;;;;;;;;;;-142.75;77.08;76597.84;5030964;28;19978;-70
2022/06/14 11:32:31;;;;;;;;;;;;;;;-142.75;79.55;76601.78;5030951;28;19925;-70
2022/06/14 11:34:56;;;;;;;;;;;;;;;-142.75;83.14;76554.53;5031152;28;19948;-70
2022/06/14 11:37:40;;;;;;;;;;;;;;;-142.75;81.90;76511.25;5030997;28;20342;-70
2022/06/14 11:40:12;;;;;;;;;;;;;;;-142.75;75.65;76479.75;5030700;28;20264;-70
2022/06/14 11:42:43;;;;;;;;;;;;;;;-142.75;71.43;76456.13;5030820;28;19917;-70
2022/06/14 11:45:14;;;;;;;;;;;;;;;-142.75;69.58;76471.88;5030985;28;19917;-70
2022/06/14 11:47:42;;;;;;;;;;;;;;;-142.75;78.46;76446.28;5031041;28;19952;-71
2022/06/14 11:50:19;;;;;;;;;;;;;;;-142.75;75.96;76452.19;5030510;28;20421;-70
2022/06/14 11:53:03;;;;;;;;;;;;;;;-142.75;72.58;76469.91;5030544;28;19928;-71
2022/06/14 11:55:28;;;;;;;;;;;;;;;-142.75;79.24;76544.69;5012956;28;19921;-71
2022/06/14 11:57:59;;;;;;;;;;;;;;;-142.75;79.09;76544.69;5012714;28;20271;-70
2022/06/14 12:00:30;;;;;;;;;;;;;;;-142.75;80.41;76550.59;5030717;28;19918;-69
2022/06/14 12:03:14;;;;;;;;;;;;;;;-142.75;74.20;76513.22;5030542;28;20003;-69
2022/06/14 12:06:05;;;;;;;;;;;;;;;-142.75;78.18;76456.13;5030443;28;20329;-69
2022/06/14 12:08:35;;;;;;;;;;;;;;;-142.75;73.09;76393.13;5005629;28;20378;-70
2022/06/14 12:11:20;;;;;;;;;;;;;;;-142.75;69.48;76395.09;5011619;28;19930;-71
2022/06/14 12:14:01;;;;;;;;;;;;;;;-142.75;71.66;76404.94;4992882;28;19918;-70
2022/06/14 12:16:39;;;;;;;;;;;;;;;-142.75;67.74;76422.66;4993272;28;19924;-71
2022/06/14 12:19:09;;;;;;;;;;;;;;;-142.75;68.90;76410.84;5010864;28;19925;-70
2022/06/14 12:21:53;;;;;;;;;;;;;;;-142.75;70.27;76412.81;5010475;28;20276;-70
2022/06/14 12:24:21;;;;;;;;;;;;;;;-142.75;69.90;76448.25;5002041;28;20379;-70
2022/06/14 12:26:59;;;;;;;;;;;;;;;-142.75;70.50;76471.88;5030359;28;20382;-69
2022/06/14 12:29:33;;;;;;;;;;;;;;;-142.75;72.67;76458.09;5029819;28;19918;-70
2022/06/14 12:32:18;;;;;;;;;;;;;;;-142.75;67.88;76450.22;5030371;28;19929;-70
2022/06/14 12:34:47;;;;;;;;;;;;;;;-142.75;64.08;76477.78;5029991;28;19917;-70
2022/06/14 12:37:15;;;;;;;;;;;;;;;-142.75;66.24;76460.06;5030387;28;19917;-70
2022/06/14 12:39:57;;;;;;;;;;;;;;;-142.75;71.34;76418.72;5029824;28;19917;-71
2022/06/14 12:42:41;;;;;;;;;;;;;;;-142.75;63.42;76410.84;5030314;28;20356;-71
2022/06/14 12:45:11;;;;;;;;;;;;;;;-142.75;74.76;76353.78;5012238;28;19924;-70
2022/06/14 12:47:52;;;;;;;;;;;;;;;-142.75;69.85;76340.00;5030908;28;19917;-70
2022/06/14 12:50:23;;;;;;;;;;;;;;;-142.75;64.10;76393.13;5012287;28;19918;-70
2022/06/14 12:52:52;;;;;;;;;;;;;;;-142.75;67.62;76446.28;5029988;28;19966;-70
2022/06/14 12:55:21;;;;;;;;;;;;;;;-142.75;70.37;76491.56;5030037;28;19925;-70
2022/06/14 12:58:11;;;;;;;;;;;;;;;-142.75;69.88;76534.84;5029829;28;20044;-70